D60

Tioga Municipal Airport

Tioga, North Dakota, USA
METAR KD60 221955Z AUTO 31016G22KT 10SM FEW042 26/13 A3007 RMK AO2
Observed Flight Rules
Jul-22 @ 19:55 UTC (8 minutes ago) Visual Flight Rules
Wind Visibility Clouds
310° at 16 knots
 Gusting to 22 knots
10 miles
  • Few at 4,200' AGL
Temperatures Readings
Current 26°C / 79°F
Dewpoint 13°C / 55°F
Humidity 45%
Altimeter 30.07" Hg
Pressure 1018 hPa
Elevation 693
METAR KD60 221955Z AUTO 31016G22KT 10SM FEW042 26/13 A3007 RMK AO2
Observed Flight Rules
Jul-22 @ 19:55 UTC
(8 minutes ago)
VFR
Wind Visibility
310° at 16 knots
 Gusting to 22 knots
10 miles
Clouds
  • Few at 4,200' AGL
Temperature Dewpoint
26°C / 79°F 13°C / 55°F
Humidity Altimeter Pressure
45% 30.07" Hg 1018 hPa